KSFB

Orlando Sanford International Airport

Orlando, Florida, USA
KSFB 200820Z 2008/2106 19014G20KT P6SM -RA VCTS SCT025CB BKN050 BKN110 WS020/22035KT TEMPO 2008/2010 VRB15G30KT 2SM +TSRA BKN025CB FM201100 25014G20KT P6SM VCSH BKN025 BKN100 FM201600 27022G29KT P6SM SCT030 SCT200 FM202300 29011KT P6SM SKC FM210500 32009KT P6SM SKC
Issued Valid From Valid To
Jan-20 @ 08:20 UTC
(3 hours ago)
Jan-20 @ 08:00 UTC
(4 hours ago)
Jan-21 @ 06:00 UTC
(in 18 hours)
Expired Click to View Jan-20 @ 08:00 to Jan-20 @ 11:00
KSFB 200820Z 2008/2106 19014G20KT P6SM -RA VCTS SCT025CB BKN050 BKN110 WS020/22035KT
Wind Visibility Clouds Conditions
190° at 14 knots
 Gusting to 20 knots
 Wind shear 2,000' AGL from 220° at 35 knots
Greater than 6 miles
  • Scattered at 2,500' AGL
  • Broken at 5,000' AGL
  • Broken at 11,000' AGL
  • Light Rain
  • Area Thunderstorm
Expired Click to View Jan-20 @ 08:00 to Jan-20 @ 10:00
TEMPO 2008/2010 VRB15G30KT 2SM +TSRA BKN025CB
Wind Visibility Clouds Conditions
Variable at 15 knots
 Gusting to 30 knots
2 miles
  • Broken at 2,500' AGL
  • Heavy Thunderstorm
  • Heavy Rain
From Jan-20 @ 11:00 to Jan-20 @ 16:00
FM201100 25014G20KT P6SM VCSH BKN025 BKN100
Wind Visibility Clouds
250° at 14 knots
 Gusting to 20 knots
Greater than 6 miles
  • Broken at 2,500' AGL
  • Broken at 10,000' AGL
From Jan-20 @ 16:00 to Jan-20 @ 23:00
FM201600 27022G29KT P6SM SCT030 SCT200
Wind Visibility Clouds
270° at 22 knots
 Gusting to 29 knots
Greater than 6 miles
  • Scattered at 3,000' AGL
  • Scattered at 20,000' AGL
From Jan-20 @ 23:00 to Jan-21 @ 05:00
FM202300 29011KT P6SM SKC
Wind Visibility Clouds
290° at 11 knots Greater than 6 miles
  • Clear skies
From Jan-21 @ 05:00 to Jan-21 @ 06:00
FM210500 32009KT P6SM SKC
Wind Visibility Clouds
320° at 9 knots Greater than 6 miles
  • Clear skies
KSFB 200820Z 2008/2106 19014G20KT P6SM -RA VCTS SCT025CB BKN050 BKN110 WS020/22035KT TEMPO 2008/2010 VRB15G30KT 2SM +TSRA BKN025CB FM201100 25014G20KT P6SM VCSH BKN025 BKN100 FM201600 27022G29KT P6SM SCT030 SCT200 FM202300 29011KT P6SM SKC FM210500 32009KT P6SM SKC
Issued Jan-20 @ 08:20 UTC
(3 hours ago)
Valid From Jan-20 @ 08:00 UTC
(4 hours ago)
Valid To Jan-21 @ 06:00 UTC
(in 18 hours)
Jan-20 @ 08:00 - Jan-20 @ 11:00
Wind Visibility
190° at 14 knots
 Gusting to 20 knots
Greater than 6 miles
Clouds
  • Scattered at 2,500' AGL
  • Broken at 5,000' AGL
  • Broken at 11,000' AGL
Conditions
  • Light Rain
  • Area Thunderstorm
Jan-20 @ 08:00 - Jan-20 @ 10:00
Wind Visibility
Variable at 15 knots
 Gusting to 30 knots
2 miles
Clouds
  • Broken at 2,500' AGL
Conditions
  • Heavy Thunderstorm
  • Heavy Rain
From Jan-20 @ 11:00 - Jan-20 @ 16:00
Wind Visibility
250° at 14 knots
 Gusting to 20 knots
Greater than 6 miles
Clouds
  • Broken at 2,500' AGL
  • Broken at 10,000' AGL
From Jan-20 @ 16:00 - Jan-20 @ 23:00
Wind Visibility
270° at 22 knots
 Gusting to 29 knots
Greater than 6 miles
Clouds
  • Scattered at 3,000' AGL
  • Scattered at 20,000' AGL
From Jan-20 @ 23:00 - Jan-21 @ 05:00
Wind Visibility
290° at 11 knots Greater than 6 miles
Clouds
  • Clear skies
From Jan-21 @ 05:00 - Jan-21 @ 06:00
Wind Visibility
320° at 9 knots Greater than 6 miles
Clouds
  • Clear skies